Tampa, Florida
Traffic Map
Current Weather Conditions
Tampa, Florida
Broken Clouds Light Rain
Broken Clouds
26°
Feels Like: 27°
Wind Chill: 26° Ceiling: 3600
Heat Index: 27° Visibility: 10mi
Dew Point: 17° Wind: 5mph
Humidity: 56% Direction: 90° (E)
Pressure: 30.06in Gusts: 0mph
Raw Report DataKTPA 011353Z 09004KT 10SM -RA FEW019 BKN036 BKN060 26/17 A3006 RMK AO2 RAB53 SLP180 P0000 T02610167
Traffic Incident Summary
Active as of:
Severity:
Category:
InformationThere was an issue retrieving the traffic information for this location. Please try a different location or try again shortly.
Advertisements
Track Severe Weather on mobile